sensor_id;sensor_type;location;lat;lon;timestamp;P1;durP1;ratioP1;P2;durP2;ratioP2
15408;SDS011;7803;48.130;13.788;2023-05-10T00:01:57;11.88;;;10.73;;
15408;SDS011;7803;48.130;13.788;2023-05-10T00:04:59;11.80;;;10.60;;
15408;SDS011;7803;48.130;13.788;2023-05-10T00:08:02;11.43;;;10.32;;
15408;SDS011;7803;48.130;13.788;2023-05-10T00:11:04;12.32;;;11.02;;
15408;SDS011;7803;48.130;13.788;2023-05-10T00:14:06;11.70;;;10.60;;
15408;SDS011;7803;48.130;13.788;2023-05-10T00:17:08;12.02;;;10.82;;
15408;SDS011;7803;48.130;13.788;2023-05-10T00:20:10;12.02;;;10.88;;
15408;SDS011;7803;48.130;13.788;2023-05-10T00:23:14;13.13;;;11.88;;
15408;SDS011;7803;48.130;13.788;2023-05-10T00:26:16;12.43;;;11.13;;
15408;SDS011;7803;48.130;13.788;2023-05-10T00:29:18;13.13;;;11.82;;
15408;SDS011;7803;48.130;13.788;2023-05-10T00:32:20;13.10;;;11.80;;
15408;SDS011;7803;48.130;13.788;2023-05-10T00:35:22;13.70;;;12.32;;
15408;SDS011;7803;48.130;13.788;2023-05-10T00:38:26;13.20;;;11.90;;
15408;SDS011;7803;48.130;13.788;2023-05-10T00:41:28;13.02;;;11.73;;
15408;SDS011;7803;48.130;13.788;2023-05-10T00:44:31;13.57;;;12.27;;
15408;SDS011;7803;48.130;13.788;2023-05-10T00:47:33;13.32;;;12.02;;
15408;SDS011;7803;48.130;13.788;2023-05-10T00:50:35;13.73;;;12.40;;
15408;SDS011;7803;48.130;13.788;2023-05-10T00:53:40;13.98;;;12.07;;
15408;SDS011;7803;48.130;13.788;2023-05-10T00:56:42;13.65;;;12.23;;
15408;SDS011;7803;48.130;13.788;2023-05-10T00:59:48;13.32;;;11.93;;
15408;SDS011;7803;48.130;13.788;2023-05-10T01:02:52;13.02;;;11.73;;
15408;SDS011;7803;48.130;13.788;2023-05-10T01:05:54;12.82;;;11.60;;
15408;SDS011;7803;48.130;13.788;2023-05-10T01:08:58;12.85;;;11.55;;
15408;SDS011;7803;48.130;13.788;2023-05-10T01:12:00;13.25;;;11.95;;
15408;SDS011;7803;48.130;13.788;2023-05-10T01:15:03;13.75;;;12.13;;
15408;SDS011;7803;48.130;13.788;2023-05-10T01:18:06;12.48;;;11.30;;
15408;SDS011;7803;48.130;13.788;2023-05-10T01:21:14;12.65;;;11.40;;
15408;SDS011;7803;48.130;13.788;2023-05-10T01:24:44;12.50;;;11.30;;
15408;SDS011;7803;48.130;13.788;2023-05-10T01:28:15;11.75;;;10.65;;
15408;SDS011;7803;48.130;13.788;2023-05-10T01:31:31;12.88;;;11.57;;
15408;SDS011;7803;48.130;13.788;2023-05-10T01:34:59;12.20;;;11.02;;
15408;SDS011;7803;48.130;13.788;2023-05-10T01:38:04;12.70;;;11.43;;
15408;SDS011;7803;48.130;13.788;2023-05-10T01:41:13;12.07;;;10.88;;
15408;SDS011;7803;48.130;13.788;2023-05-10T01:44:20;12.23;;;11.02;;
15408;SDS011;7803;48.130;13.788;2023-05-10T01:47:30;12.40;;;11.20;;
15408;SDS011;7803;48.130;13.788;2023-05-10T01:50:39;11.90;;;10.77;;
15408;SDS011;7803;48.130;13.788;2023-05-10T01:53:44;12.43;;;11.23;;
15408;SDS011;7803;48.130;13.788;2023-05-10T01:56:50;12.20;;;10.90;;
15408;SDS011;7803;48.130;13.788;2023-05-10T01:59:57;11.65;;;10.55;;
15408;SDS011;7803;48.130;13.788;2023-05-10T02:03:04;11.98;;;10.77;;
15408;SDS011;7803;48.130;13.788;2023-05-10T02:06:10;10.93;;;9.85;;
15408;SDS011;7803;48.130;13.788;2023-05-10T02:09:14;12.25;;;11.05;;
15408;SDS011;7803;48.130;13.788;2023-05-10T02:12:17;12.25;;;11.05;;
15408;SDS011;7803;48.130;13.788;2023-05-10T02:15:20;11.48;;;10.38;;
15408;SDS011;7803;48.130;13.788;2023-05-10T02:18:24;11.73;;;10.52;;
15408;SDS011;7803;48.130;13.788;2023-05-10T02:21:29;11.10;;;10.05;;
15408;SDS011;7803;48.130;13.788;2023-05-10T02:24:32;10.98;;;9.93;;
15408;SDS011;7803;48.130;13.788;2023-05-10T02:27:36;10.90;;;9.88;;
15408;SDS011;7803;48.130;13.788;2023-05-10T02:30:38;11.18;;;10.07;;
15408;SDS011;7803;48.130;13.788;2023-05-10T02:33:40;11.52;;;10.43;;
15408;SDS011;7803;48.130;13.788;2023-05-10T02:36:46;11.32;;;10.23;;
15408;SDS011;7803;48.130;13.788;2023-05-10T02:39:49;11.15;;;10.13;;
15408;SDS011;7803;48.130;13.788;2023-05-10T02:42:54;12.98;;;10.45;;
15408;SDS011;7803;48.130;13.788;2023-05-10T02:45:58;10.93;;;9.82;;
15408;SDS011;7803;48.130;13.788;2023-05-10T02:49:00;10.50;;;9.50;;
15408;SDS011;7803;48.130;13.788;2023-05-10T02:52:05;10.35;;;9.35;;
15408;SDS011;7803;48.130;13.788;2023-05-10T02:55:09;10.55;;;9.55;;
15408;SDS011;7803;48.130;13.788;2023-05-10T02:58:13;10.13;;;9.15;;
15408;SDS011;7803;48.130;13.788;2023-05-10T03:01:15;10.40;;;9.40;;
15408;SDS011;7803;48.130;13.788;2023-05-10T03:04:17;10.30;;;9.30;;
15408;SDS011;7803;48.130;13.788;2023-05-10T03:07:21;9.77;;;8.88;;
15408;SDS011;7803;48.130;13.788;2023-05-10T03:10:24;9.75;;;8.85;;
15408;SDS011;7803;48.130;13.788;2023-05-10T03:13:31;10.18;;;9.18;;
15408;SDS011;7803;48.130;13.788;2023-05-10T03:16:40;10.05;;;9.05;;
15408;SDS011;7803;48.130;13.788;2023-05-10T03:19:47;10.68;;;9.57;;
15408;SDS011;7803;48.130;13.788;2023-05-10T03:22:59;10.20;;;9.20;;
15408;SDS011;7803;48.130;13.788;2023-05-10T03:26:05;9.73;;;8.80;;
15408;SDS011;7803;48.130;13.788;2023-05-10T03:29:08;9.95;;;8.95;;
15408;SDS011;7803;48.130;13.788;2023-05-10T03:32:11;9.73;;;8.75;;
15408;SDS011;7803;48.130;13.788;2023-05-10T03:35:13;9.60;;;8.70;;
15408;SDS011;7803;48.130;13.788;2023-05-10T03:38:16;9.30;;;8.48;;
15408;SDS011;7803;48.130;13.788;2023-05-10T03:41:18;9.63;;;8.73;;
15408;SDS011;7803;48.130;13.788;2023-05-10T03:44:20;9.75;;;8.75;;
15408;SDS011;7803;48.130;13.788;2023-05-10T03:47:22;9.15;;;8.35;;
15408;SDS011;7803;48.130;13.788;2023-05-10T03:50:25;9.45;;;8.55;;
15408;SDS011;7803;48.130;13.788;2023-05-10T03:53:28;9.25;;;8.35;;
15408;SDS011;7803;48.130;13.788;2023-05-10T03:56:30;9.02;;;8.13;;
15408;SDS011;7803;48.130;13.788;2023-05-10T03:59:32;9.05;;;8.15;;
15408;SDS011;7803;48.130;13.788;2023-05-10T04:02:34;8.90;;;8.10;;
15408;SDS011;7803;48.130;13.788;2023-05-10T04:05:36;8.60;;;7.80;;
15408;SDS011;7803;48.130;13.788;2023-05-10T04:08:40;8.40;;;7.65;;
15408;SDS011;7803;48.130;13.788;2023-05-10T04:11:42;8.75;;;7.95;;
15408;SDS011;7803;48.130;13.788;2023-05-10T04:14:44;8.45;;;7.65;;
15408;SDS011;7803;48.130;13.788;2023-05-10T04:17:45;8.20;;;7.40;;
15408;SDS011;7803;48.130;13.788;2023-05-10T04:20:47;8.48;;;7.68;;
15408;SDS011;7803;48.130;13.788;2023-05-10T04:23:51;8.40;;;7.60;;
15408;SDS011;7803;48.130;13.788;2023-05-10T04:26:53;7.93;;;7.20;;
15408;SDS011;7803;48.130;13.788;2023-05-10T04:29:56;8.82;;;7.75;;
15408;SDS011;7803;48.130;13.788;2023-05-10T04:32:58;8.77;;;7.15;;
15408;SDS011;7803;48.130;13.788;2023-05-10T04:36:00;8.20;;;7.40;;
15408;SDS011;7803;48.130;13.788;2023-05-10T04:39:04;7.88;;;7.18;;
15408;SDS011;7803;48.130;13.788;2023-05-10T04:42:06;8.57;;;7.70;;
15408;SDS011;7803;48.130;13.788;2023-05-10T04:45:08;7.82;;;7.13;;
15408;SDS011;7803;48.130;13.788;2023-05-10T04:48:10;7.50;;;6.80;;
15408;SDS011;7803;48.130;13.788;2023-05-10T04:51:13;7.60;;;6.90;;
15408;SDS011;7803;48.130;13.788;2023-05-10T04:54:16;7.68;;;6.72;;
15408;SDS011;7803;48.130;13.788;2023-05-10T04:57:18;7.10;;;6.40;;
15408;SDS011;7803;48.130;13.788;2023-05-10T05:00:20;7.57;;;6.18;;
15408;SDS011;7803;48.130;13.788;2023-05-10T05:03:22;9.38;;;6.35;;
15408;SDS011;7803;48.130;13.788;2023-05-10T05:06:24;8.80;;;7.00;;
15408;SDS011;7803;48.130;13.788;2023-05-10T05:09:28;7.70;;;5.85;;
15408;SDS011;7803;48.130;13.788;2023-05-10T05:12:32;8.23;;;6.38;;
15408;SDS011;7803;48.130;13.788;2023-05-10T05:15:33;7.53;;;6.57;;
15408;SDS011;7803;48.130;13.788;2023-05-10T05:18:35;9.70;;;7.07;;
15408;SDS011;7803;48.130;13.788;2023-05-10T05:21:37;7.97;;;6.43;;
15408;SDS011;7803;48.130;13.788;2023-05-10T05:24:41;7.13;;;6.30;;
15408;SDS011;7803;48.130;13.788;2023-05-10T05:27:43;7.93;;;5.88;;
15408;SDS011;7803;48.130;13.788;2023-05-10T05:30:45;6.75;;;5.90;;
15408;SDS011;7803;48.130;13.788;2023-05-10T05:33:47;9.15;;;6.50;;
15408;SDS011;7803;48.130;13.788;2023-05-10T05:36:48;6.82;;;5.57;;
15408;SDS011;7803;48.130;13.788;2023-05-10T05:39:52;6.70;;;6.10;;
15408;SDS011;7803;48.130;13.788;2023-05-10T05:42:55;9.52;;;6.50;;
15408;SDS011;7803;48.130;13.788;2023-05-10T05:45:56;6.63;;;5.95;;
15408;SDS011;7803;48.130;13.788;2023-05-10T05:48:58;6.85;;;6.03;;
15408;SDS011;7803;48.130;13.788;2023-05-10T05:52:01;6.93;;;6.20;;
15408;SDS011;7803;48.130;13.788;2023-05-10T05:55:05;6.53;;;5.93;;
15408;SDS011;7803;48.130;13.788;2023-05-10T05:58:08;6.72;;;6.05;;
15408;SDS011;7803;48.130;13.788;2023-05-10T06:01:10;6.93;;;6.22;;
15408;SDS011;7803;48.130;13.788;2023-05-10T06:04:12;6.60;;;5.93;;
15408;SDS011;7803;48.130;13.788;2023-05-10T06:07:14;7.88;;;5.68;;
15408;SDS011;7803;48.130;13.788;2023-05-10T06:10:17;6.53;;;5.82;;
15408;SDS011;7803;48.130;13.788;2023-05-10T06:13:19;6.65;;;6.05;;
15408;SDS011;7803;48.130;13.788;2023-05-10T06:16:21;7.03;;;5.53;;
15408;SDS011;7803;48.130;13.788;2023-05-10T06:19:23;5.95;;;5.35;;
15408;SDS011;7803;48.130;13.788;2023-05-10T06:22:26;6.78;;;5.70;;
15408;SDS011;7803;48.130;13.788;2023-05-10T06:25:29;6.38;;;5.78;;
15408;SDS011;7803;48.130;13.788;2023-05-10T06:28:31;6.13;;;5.53;;
15408;SDS011;7803;48.130;13.788;2023-05-10T06:31:33;6.88;;;5.80;;
15408;SDS011;7803;48.130;13.788;2023-05-10T06:34:35;6.60;;;5.93;;
15408;SDS011;7803;48.130;13.788;2023-05-10T06:37:38;6.15;;;5.55;;
15408;SDS011;7803;48.130;13.788;2023-05-10T06:40:42;5.90;;;5.30;;
15408;SDS011;7803;48.130;13.788;2023-05-10T06:43:44;6.10;;;5.50;;
15408;SDS011;7803;48.130;13.788;2023-05-10T06:46:46;7.55;;;5.63;;
15408;SDS011;7803;48.130;13.788;2023-05-10T06:49:48;6.85;;;5.72;;
15408;SDS011;7803;48.130;13.788;2023-05-10T06:52:49;5.90;;;5.30;;
15408;SDS011;7803;48.130;13.788;2023-05-10T06:55:53;6.70;;;5.15;;
15408;SDS011;7803;48.130;13.788;2023-05-10T06:58:55;5.88;;;5.38;;
15408;SDS011;7803;48.130;13.788;2023-05-10T07:01:57;6.28;;;5.63;;
15408;SDS011;7803;48.130;13.788;2023-05-10T07:04:59;5.80;;;5.07;;
15408;SDS011;7803;48.130;13.788;2023-05-10T07:08:00;6.63;;;5.60;;
15408;SDS011;7803;48.130;13.788;2023-05-10T07:11:05;6.32;;;5.68;;
15408;SDS011;7803;48.130;13.788;2023-05-10T07:14:08;7.63;;;5.60;;
15408;SDS011;7803;48.130;13.788;2023-05-10T07:17:10;6.65;;;5.20;;
15408;SDS011;7803;48.130;13.788;2023-05-10T07:20:12;5.95;;;5.10;;
15408;SDS011;7803;48.130;13.788;2023-05-10T07:23:14;5.88;;;5.00;;
15408;SDS011;7803;48.130;13.788;2023-05-10T07:26:19;5.80;;;5.22;;
15408;SDS011;7803;48.130;13.788;2023-05-10T07:29:22;6.00;;;5.10;;
15408;SDS011;7803;48.130;13.788;2023-05-10T07:32:23;5.88;;;4.93;;
15408;SDS011;7803;48.130;13.788;2023-05-10T07:35:25;5.90;;;5.30;;
15408;SDS011;7803;48.130;13.788;2023-05-10T07:38:28;4.90;;;4.45;;
15408;SDS011;7803;48.130;13.788;2023-05-10T07:41:31;5.68;;;5.10;;
15408;SDS011;7803;48.130;13.788;2023-05-10T07:44:33;6.72;;;5.13;;
15408;SDS011;7803;48.130;13.788;2023-05-10T07:47:35;5.85;;;4.97;;
15408;SDS011;7803;48.130;13.788;2023-05-10T07:50:37;5.22;;;4.72;;
15408;SDS011;7803;48.130;13.788;2023-05-10T07:53:39;5.35;;;4.85;;
15408;SDS011;7803;48.130;13.788;2023-05-10T07:56:42;5.13;;;4.63;;
15408;SDS011;7803;48.130;13.788;2023-05-10T07:59:47;5.57;;;4.75;;
15408;SDS011;7803;48.130;13.788;2023-05-10T08:02:48;6.50;;;5.03;;
15408;SDS011;7803;48.130;13.788;2023-05-10T08:05:50;5.50;;;4.47;;
15408;SDS011;7803;48.130;13.788;2023-05-10T08:08:52;5.30;;;4.80;;
15408;SDS011;7803;48.130;13.788;2023-05-10T08:11:56;5.05;;;4.55;;
15408;SDS011;7803;48.130;13.788;2023-05-10T08:14:59;4.70;;;4.30;;
15408;SDS011;7803;48.130;13.788;2023-05-10T08:18:01;5.38;;;4.88;;
15408;SDS011;7803;48.130;13.788;2023-05-10T08:21:04;5.20;;;4.60;;
15408;SDS011;7803;48.130;13.788;2023-05-10T08:24:06;4.63;;;4.22;;
15408;SDS011;7803;48.130;13.788;2023-05-10T08:27:10;5.07;;;4.53;;
15408;SDS011;7803;48.130;13.788;2023-05-10T08:30:12;5.45;;;4.60;;
15408;SDS011;7803;48.130;13.788;2023-05-10T08:33:14;4.82;;;4.40;;
15408;SDS011;7803;48.130;13.788;2023-05-10T08:36:16;5.13;;;4.63;;
15408;SDS011;7803;48.130;13.788;2023-05-10T08:39:21;4.78;;;4.32;;
15408;SDS011;7803;48.130;13.788;2023-05-10T08:42:25;4.90;;;4.40;;
15408;SDS011;7803;48.130;13.788;2023-05-10T08:45:31;4.72;;;4.32;;
15408;SDS011;7803;48.130;13.788;2023-05-10T08:48:34;5.57;;;4.65;;
15408;SDS011;7803;48.130;13.788;2023-05-10T08:51:36;5.05;;;4.55;;
15408;SDS011;7803;48.130;13.788;2023-05-10T08:54:45;4.85;;;4.32;;
15408;SDS011;7803;48.130;13.788;2023-05-10T08:57:48;4.40;;;4.00;;
15408;SDS011;7803;48.130;13.788;2023-05-10T09:00:51;4.93;;;4.25;;
15408;SDS011;7803;48.130;13.788;2023-05-10T09:03:52;4.40;;;4.00;;
15408;SDS011;7803;48.130;13.788;2023-05-10T09:06:55;4.25;;;3.85;;
15408;SDS011;7803;48.130;13.788;2023-05-10T09:09:57;4.90;;;4.40;;
15408;SDS011;7803;48.130;13.788;2023-05-10T09:13:01;4.55;;;4.10;;
15408;SDS011;7803;48.130;13.788;2023-05-10T09:16:05;4.63;;;3.83;;
15408;SDS011;7803;48.130;13.788;2023-05-10T09:19:07;4.13;;;3.72;;
15408;SDS011;7803;48.130;13.788;2023-05-10T09:22:09;4.20;;;3.72;;
15408;SDS011;7803;48.130;13.788;2023-05-10T09:25:12;4.93;;;3.90;;
15408;SDS011;7803;48.130;13.788;2023-05-10T09:28:16;5.03;;;4.10;;
15408;SDS011;7803;48.130;13.788;2023-05-10T09:31:18;4.55;;;4.13;;
15408;SDS011;7803;48.130;13.788;2023-05-10T09:34:20;4.35;;;3.95;;
15408;SDS011;7803;48.130;13.788;2023-05-10T09:37:30;4.18;;;3.78;;
15408;SDS011;7803;48.130;13.788;2023-05-10T09:40:32;4.10;;;3.70;;
15408;SDS011;7803;48.130;13.788;2023-05-10T09:43:38;4.75;;;3.88;;
15408;SDS011;7803;48.130;13.788;2023-05-10T09:46:41;4.20;;;3.80;;
15408;SDS011;7803;48.130;13.788;2023-05-10T09:49:43;3.90;;;3.60;;
15408;SDS011;7803;48.130;13.788;2023-05-10T09:52:46;4.07;;;3.67;;
15408;SDS011;7803;48.130;13.788;2023-05-10T09:55:49;3.60;;;3.30;;
15408;SDS011;7803;48.130;13.788;2023-05-10T09:59:02;4.10;;;3.70;;
15408;SDS011;7803;48.130;13.788;2023-05-10T10:02:05;4.38;;;3.92;;
15408;SDS011;7803;48.130;13.788;2023-05-10T10:05:08;4.15;;;3.75;;
15408;SDS011;7803;48.130;13.788;2023-05-10T10:08:10;3.80;;;3.50;;
15408;SDS011;7803;48.130;13.788;2023-05-10T10:11:13;4.05;;;3.40;;
15408;SDS011;7803;48.130;13.788;2023-05-10T10:14:16;4.10;;;3.70;;
15408;SDS011;7803;48.130;13.788;2023-05-10T10:17:19;4.05;;;3.40;;
15408;SDS011;7803;48.130;13.788;2023-05-10T10:20:22;3.83;;;3.53;;
15408;SDS011;7803;48.130;13.788;2023-05-10T10:23:25;4.00;;;3.67;;
15408;SDS011;7803;48.130;13.788;2023-05-10T10:26:28;3.92;;;3.60;;
15408;SDS011;7803;48.130;13.788;2023-05-10T10:29:33;3.60;;;3.30;;
15408;SDS011;7803;48.130;13.788;2023-05-10T10:32:51;3.50;;;3.20;;
15408;SDS011;7803;48.130;13.788;2023-05-10T10:36:03;3.85;;;3.45;;
15408;SDS011;7803;48.130;13.788;2023-05-10T10:39:08;3.50;;;3.20;;
15408;SDS011;7803;48.130;13.788;2023-05-10T10:42:11;4.05;;;3.65;;
15408;SDS011;7803;48.130;13.788;2023-05-10T10:45:14;4.13;;;3.38;;
15408;SDS011;7803;48.130;13.788;2023-05-10T10:48:20;3.58;;;3.28;;
15408;SDS011;7803;48.130;13.788;2023-05-10T10:51:23;3.33;;;3.03;;
15408;SDS011;7803;48.130;13.788;2023-05-10T10:54:26;3.50;;;3.17;;
15408;SDS011;7803;48.130;13.788;2023-05-10T10:57:31;3.47;;;3.17;;
15408;SDS011;7803;48.130;13.788;2023-05-10T11:00:36;3.47;;;3.17;;
15408;SDS011;7803;48.130;13.788;2023-05-10T11:03:41;3.38;;;3.08;;
15408;SDS011;7803;48.130;13.788;2023-05-10T11:10:19;3.38;;;3.08;;
15408;SDS011;7803;48.130;13.788;2023-05-10T11:13:27;3.38;;;3.08;;
15408;SDS011;7803;48.130;13.788;2023-05-10T11:16:40;3.40;;;2.90;;
15408;SDS011;7803;48.130;13.788;2023-05-10T11:23:12;3.38;;;3.08;;
15408;SDS011;7803;48.130;13.788;2023-05-10T11:26:17;3.13;;;2.83;;
15408;SDS011;7803;48.130;13.788;2023-05-10T11:29:23;3.28;;;2.95;;
15408;SDS011;7803;48.130;13.788;2023-05-10T11:32:27;2.90;;;2.70;;
15408;SDS011;7803;48.130;13.788;2023-05-10T11:35:30;3.22;;;2.90;;
15408;SDS011;7803;48.130;13.788;2023-05-10T11:38:37;3.28;;;2.97;;
15408;SDS011;7803;48.130;13.788;2023-05-10T11:41:39;3.00;;;2.70;;
15408;SDS011;7803;48.130;13.788;2023-05-10T11:44:41;3.00;;;2.70;;
15408;SDS011;7803;48.130;13.788;2023-05-10T11:47:49;2.95;;;2.67;;
15408;SDS011;7803;48.130;13.788;2023-05-10T11:50:51;4.07;;;3.00;;
15408;SDS011;7803;48.130;13.788;2023-05-10T11:53:57;3.28;;;2.80;;
15408;SDS011;7803;48.130;13.788;2023-05-10T11:56:59;2.63;;;2.42;;
15408;SDS011;7803;48.130;13.788;2023-05-10T12:00:01;2.90;;;2.60;;
15408;SDS011;7803;48.130;13.788;2023-05-10T12:03:06;2.85;;;2.63;;
15408;SDS011;7803;48.130;13.788;2023-05-10T12:06:08;2.60;;;2.40;;
15408;SDS011;7803;48.130;13.788;2023-05-10T12:09:10;2.60;;;2.33;;
15408;SDS011;7803;48.130;13.788;2023-05-10T12:12:15;3.85;;;2.80;;
15408;SDS011;7803;48.130;13.788;2023-05-10T12:15:18;3.63;;;2.88;;
15408;SDS011;7803;48.130;13.788;2023-05-10T12:18:23;3.10;;;2.70;;
15408;SDS011;7803;48.130;13.788;2023-05-10T12:21:27;3.88;;;2.67;;
15408;SDS011;7803;48.130;13.788;2023-05-10T12:24:30;2.40;;;2.20;;
15408;SDS011;7803;48.130;13.788;2023-05-10T12:27:34;2.65;;;2.40;;
15408;SDS011;7803;48.130;13.788;2023-05-10T12:30:36;2.60;;;2.40;;
15408;SDS011;7803;48.130;13.788;2023-05-10T12:33:40;2.40;;;2.20;;
15408;SDS011;7803;48.130;13.788;2023-05-10T12:36:43;2.70;;;2.40;;
15408;SDS011;7803;48.130;13.788;2023-05-10T12:39:45;2.63;;;2.28;;
15408;SDS011;7803;48.130;13.788;2023-05-10T12:42:47;3.08;;;2.53;;
15408;SDS011;7803;48.130;13.788;2023-05-10T12:45:49;2.78;;;2.40;;
15408;SDS011;7803;48.130;13.788;2023-05-10T12:48:53;2.83;;;2.40;;
15408;SDS011;7803;48.130;13.788;2023-05-10T12:51:55;2.90;;;2.60;;
15408;SDS011;7803;48.130;13.788;2023-05-10T12:54:58;2.38;;;2.17;;
15408;SDS011;7803;48.130;13.788;2023-05-10T12:58:00;3.17;;;2.42;;
15408;SDS011;7803;48.130;13.788;2023-05-10T13:01:02;3.03;;;2.55;;
15408;SDS011;7803;48.130;13.788;2023-05-10T13:04:07;3.22;;;2.53;;
15408;SDS011;7803;48.130;13.788;2023-05-10T13:07:09;2.47;;;2.28;;
15408;SDS011;7803;48.130;13.788;2023-05-10T13:10:11;2.65;;;2.45;;
15408;SDS011;7803;48.130;13.788;2023-05-10T13:13:13;2.65;;;2.20;;
15408;SDS011;7803;48.130;13.788;2023-05-10T13:16:17;2.67;;;2.20;;
15408;SDS011;7803;48.130;13.788;2023-05-10T13:19:21;2.60;;;2.25;;
15408;SDS011;7803;48.130;13.788;2023-05-10T13:22:23;2.35;;;2.15;;
15408;SDS011;7803;48.130;13.788;2023-05-10T13:25:25;2.58;;;2.20;;
15408;SDS011;7803;48.130;13.788;2023-05-10T13:28:27;3.05;;;2.30;;
15408;SDS011;7803;48.130;13.788;2023-05-10T13:31:30;2.60;;;2.17;;
15408;SDS011;7803;48.130;13.788;2023-05-10T13:34:33;2.20;;;2.00;;
15408;SDS011;7803;48.130;13.788;2023-05-10T13:37:35;2.20;;;2.00;;
15408;SDS011;7803;48.130;13.788;2023-05-10T13:40:37;2.17;;;1.98;;
15408;SDS011;7803;48.130;13.788;2023-05-10T13:43:39;2.30;;;2.00;;
15408;SDS011;7803;48.130;13.788;2023-05-10T13:46:41;2.40;;;2.10;;
15408;SDS011;7803;48.130;13.788;2023-05-10T13:49:45;2.38;;;2.08;;
15408;SDS011;7803;48.130;13.788;2023-05-10T13:52:47;2.15;;;1.92;;
15408;SDS011;7803;48.130;13.788;2023-05-10T13:55:49;2.00;;;1.80;;
15408;SDS011;7803;48.130;13.788;2023-05-10T13:58:51;2.08;;;1.80;;
15408;SDS011;7803;48.130;13.788;2023-05-10T14:01:53;2.10;;;1.90;;
15408;SDS011;7803;48.130;13.788;2023-05-10T14:04:56;2.20;;;1.98;;
15408;SDS011;7803;48.130;13.788;2023-05-10T14:07:58;2.05;;;1.85;;
15408;SDS011;7803;48.130;13.788;2023-05-10T14:11:00;2.10;;;1.90;;
15408;SDS011;7803;48.130;13.788;2023-05-10T14:14:03;2.38;;;2.10;;
15408;SDS011;7803;48.130;13.788;2023-05-10T14:17:05;3.00;;;2.10;;
15408;SDS011;7803;48.130;13.788;2023-05-10T14:20:09;3.35;;;2.30;;
15408;SDS011;7803;48.130;13.788;2023-05-10T14:23:11;1.98;;;1.80;;
15408;SDS011;7803;48.130;13.788;2023-05-10T14:26:13;1.80;;;1.70;;
15408;SDS011;7803;48.130;13.788;2023-05-10T14:29:16;2.00;;;1.80;;
15408;SDS011;7803;48.130;13.788;2023-05-10T14:32:18;1.60;;;1.50;;
15408;SDS011;7803;48.130;13.788;2023-05-10T14:35:21;2.45;;;1.80;;
15408;SDS011;7803;48.130;13.788;2023-05-10T14:38:23;1.95;;;1.70;;
15408;SDS011;7803;48.130;13.788;2023-05-10T14:41:26;2.35;;;2.00;;
15408;SDS011;7803;48.130;13.788;2023-05-10T14:44:30;3.10;;;2.30;;
15408;SDS011;7803;48.130;13.788;2023-05-10T14:47:32;1.80;;;1.70;;
15408;SDS011;7803;48.130;13.788;2023-05-10T14:50:35;1.67;;;1.58;;
15408;SDS011;7803;48.130;13.788;2023-05-10T14:53:37;1.70;;;1.60;;
15408;SDS011;7803;48.130;13.788;2023-05-10T14:56:39;1.90;;;1.80;;
15408;SDS011;7803;48.130;13.788;2023-05-10T14:59:41;2.05;;;1.85;;
15408;SDS011;7803;48.130;13.788;2023-05-10T15:02:43;1.80;;;1.70;;
15408;SDS011;7803;48.130;13.788;2023-05-10T15:05:47;2.00;;;1.80;;
15408;SDS011;7803;48.130;13.788;2023-05-10T15:08:48;2.20;;;1.80;;
15408;SDS011;7803;48.130;13.788;2023-05-10T15:11:50;2.05;;;1.85;;
15408;SDS011;7803;48.130;13.788;2023-05-10T15:14:52;2.22;;;1.80;;
15408;SDS011;7803;48.130;13.788;2023-05-10T15:17:54;1.80;;;1.70;;
15408;SDS011;7803;48.130;13.788;2023-05-10T15:20:58;1.98;;;1.80;;
15408;SDS011;7803;48.130;13.788;2023-05-10T15:24:00;2.10;;;1.90;;
15408;SDS011;7803;48.130;13.788;2023-05-10T15:27:02;1.90;;;1.70;;
15408;SDS011;7803;48.130;13.788;2023-05-10T15:30:04;2.38;;;1.88;;
15408;SDS011;7803;48.130;13.788;2023-05-10T15:33:07;2.50;;;2.00;;
15408;SDS011;7803;48.130;13.788;2023-05-10T15:36:10;1.90;;;1.70;;
15408;SDS011;7803;48.130;13.788;2023-05-10T15:39:13;1.90;;;1.70;;
15408;SDS011;7803;48.130;13.788;2023-05-10T15:42:15;1.60;;;1.48;;
15408;SDS011;7803;48.130;13.788;2023-05-10T15:45:17;1.85;;;1.65;;
15408;SDS011;7803;48.130;13.788;2023-05-10T15:48:19;1.70;;;1.60;;
15408;SDS011;7803;48.130;13.788;2023-05-10T15:51:23;1.55;;;1.45;;
15408;SDS011;7803;48.130;13.788;2023-05-10T15:54:25;1.73;;;1.63;;
15408;SDS011;7803;48.130;13.788;2023-05-10T15:57:28;1.75;;;1.60;;
15408;SDS011;7803;48.130;13.788;2023-05-10T16:00:30;1.60;;;1.50;;
15408;SDS011;7803;48.130;13.788;2023-05-10T16:03:32;1.52;;;1.40;;
15408;SDS011;7803;48.130;13.788;2023-05-10T16:06:36;1.60;;;1.50;;
15408;SDS011;7803;48.130;13.788;2023-05-10T16:09:38;1.60;;;1.50;;
15408;SDS011;7803;48.130;13.788;2023-05-10T16:12:40;1.75;;;1.63;;
15408;SDS011;7803;48.130;13.788;2023-05-10T16:15:42;1.70;;;1.48;;
15408;SDS011;7803;48.130;13.788;2023-05-10T16:18:44;3.05;;;1.98;;
15408;SDS011;7803;48.130;13.788;2023-05-10T16:21:48;2.30;;;1.70;;
15408;SDS011;7803;48.130;13.788;2023-05-10T16:24:50;1.60;;;1.50;;
15408;SDS011;7803;48.130;13.788;2023-05-10T16:27:52;1.65;;;1.55;;
15408;SDS011;7803;48.130;13.788;2023-05-10T16:30:54;1.60;;;1.50;;
15408;SDS011;7803;48.130;13.788;2023-05-10T16:33:56;1.67;;;1.55;;
15408;SDS011;7803;48.130;13.788;2023-05-10T16:36:59;1.65;;;1.55;;
15408;SDS011;7803;48.130;13.788;2023-05-10T16:40:01;1.83;;;1.63;;
15408;SDS011;7803;48.130;13.788;2023-05-10T16:43:04;1.73;;;1.63;;
15408;SDS011;7803;48.130;13.788;2023-05-10T16:46:09;1.75;;;1.60;;
15408;SDS011;7803;48.130;13.788;2023-05-10T16:49:12;2.83;;;2.05;;
15408;SDS011;7803;48.130;13.788;2023-05-10T16:52:15;2.33;;;1.88;;
15408;SDS011;7803;48.130;13.788;2023-05-10T16:55:17;1.92;;;1.73;;
15408;SDS011;7803;48.130;13.788;2023-05-10T16:58:19;2.00;;;1.80;;
15408;SDS011;7803;48.130;13.788;2023-05-10T17:01:21;3.22;;;2.00;;
15408;SDS011;7803;48.130;13.788;2023-05-10T17:04:23;1.80;;;1.70;;
15408;SDS011;7803;48.130;13.788;2023-05-10T17:07:26;2.10;;;1.80;;
15408;SDS011;7803;48.130;13.788;2023-05-10T17:10:28;2.83;;;2.15;;
15408;SDS011;7803;48.130;13.788;2023-05-10T17:13:30;2.10;;;1.90;;
15408;SDS011;7803;48.130;13.788;2023-05-10T17:16:32;1.98;;;1.88;;
15408;SDS011;7803;48.130;13.788;2023-05-10T17:19:34;2.10;;;1.90;;
15408;SDS011;7803;48.130;13.788;2023-05-10T17:22:38;2.17;;;1.98;;
15408;SDS011;7803;48.130;13.788;2023-05-10T17:25:40;2.35;;;2.15;;
15408;SDS011;7803;48.130;13.788;2023-05-10T17:28:42;2.50;;;2.30;;
15408;SDS011;7803;48.130;13.788;2023-05-10T17:31:44;2.15;;;1.95;;
15408;SDS011;7803;48.130;13.788;2023-05-10T17:34:46;2.70;;;2.38;;
15408;SDS011;7803;48.130;13.788;2023-05-10T17:37:49;2.22;;;2.03;;
15408;SDS011;7803;48.130;13.788;2023-05-10T17:40:51;2.50;;;2.30;;
15408;SDS011;7803;48.130;13.788;2023-05-10T17:43:53;2.75;;;2.55;;
15408;SDS011;7803;48.130;13.788;2023-05-10T17:46:55;3.13;;;2.83;;
15408;SDS011;7803;48.130;13.788;2023-05-10T17:49:58;3.00;;;2.70;;
15408;SDS011;7803;48.130;13.788;2023-05-10T17:53:01;3.03;;;2.72;;
15408;SDS011;7803;48.130;13.788;2023-05-10T17:56:03;2.88;;;2.58;;
15408;SDS011;7803;48.130;13.788;2023-05-10T17:59:06;2.92;;;2.63;;
15408;SDS011;7803;48.130;13.788;2023-05-10T18:02:08;3.08;;;2.80;;
15408;SDS011;7803;48.130;13.788;2023-05-10T18:05:10;3.22;;;2.92;;
15408;SDS011;7803;48.130;13.788;2023-05-10T18:08:13;3.17;;;2.92;;
15408;SDS011;7803;48.130;13.788;2023-05-10T18:11:21;3.50;;;3.20;;
15408;SDS011;7803;48.130;13.788;2023-05-10T18:14:23;3.45;;;3.15;;
15408;SDS011;7803;48.130;13.788;2023-05-10T18:17:27;3.55;;;3.25;;
15408;SDS011;7803;48.130;13.788;2023-05-10T18:20:29;3.70;;;3.40;;
15408;SDS011;7803;48.130;13.788;2023-05-10T18:23:33;4.05;;;3.70;;
15408;SDS011;7803;48.130;13.788;2023-05-10T18:26:35;4.00;;;3.60;;